Time;durP1;ratioP1;P1;durP2;ratioP2;P2;SDS_P1;SDS_P2;PMS_P1;PMS_P2;Temp;Humidity;BMP_temperature;BMP_pressure;BME280_temperature;BME280_humidity;BME280_pressure;Samples;Min_cycle;Max_cycle;Signal;HPM_P1;HPM_P2
2023/12/13 00:02:25;;;;;;;2.00;1.80;;;16.90;68.50;17.90;98975.00;;;;5055128;28;20601;-48
2023/12/13 00:04:51;;;;;;;1.80;1.70;;;16.90;68.40;17.90;98983.00;;;;5055533;28;20181;-48
2023/12/13 00:07:16;;;;;;;1.70;1.60;;;16.90;68.30;17.90;98984.00;;;;5054428;28;20214;-49
2023/12/13 00:09:42;;;;;;;1.80;1.70;;;16.90;68.40;17.80;98981.00;;;;5053876;28;20190;-48
2023/12/13 00:12:08;;;;;;;1.73;1.60;;;16.90;68.40;17.80;98972.00;;;;5051900;28;20235;-48
2023/12/13 00:14:33;;;;;;;2.40;1.63;;;16.90;68.40;17.80;98982.00;;;;5053123;28;20606;-48
2023/12/13 00:16:59;;;;;;;1.57;1.47;;;16.90;68.30;17.80;98977.00;;;;5055170;28;20692;-48
2023/12/13 00:19:25;;;;;;;1.70;1.60;;;16.80;68.50;17.80;98973.00;;;;5057540;28;20181;-48
2023/12/13 00:21:51;;;;;;;2.30;1.83;;;16.90;68.40;17.80;98974.00;;;;5053642;28;20188;-48
2023/12/13 00:24:16;;;;;;;1.80;1.70;;;16.90;68.40;17.80;98980.00;;;;5053132;28;20675;-48
2023/12/13 00:26:42;;;;;;;1.80;1.67;;;16.80;68.30;17.70;98979.00;;;;5054286;28;20203;-48
2023/12/13 00:29:10;;;;;;;3.53;1.77;;;16.80;68.20;17.70;98973.00;;;;5053176;28;20294;-48
2023/12/13 00:31:36;;;;;;;2.50;1.70;;;16.80;68.20;17.70;98957.00;;;;5051723;28;20193;-49
2023/12/13 00:34:02;;;;;;;3.63;2.00;;;16.80;68.20;17.70;98974.00;;;;5052733;28;20206;-49
2023/12/13 00:36:27;;;;;;;1.80;1.67;;;16.80;68.20;17.70;98963.00;;;;5054640;28;20228;-48
2023/12/13 00:38:53;;;;;;;1.60;1.50;;;16.80;68.30;17.70;98959.00;;;;5053930;28;20192;-49
2023/12/13 00:41:19;;;;;;;1.70;1.50;;;16.80;68.40;17.70;98969.00;;;;5053438;28;20663;-49
2023/12/13 00:43:46;;;;;;;1.80;1.70;;;16.80;68.40;17.70;98971.00;;;;5053179;28;20216;-48
2023/12/13 00:46:19;;;;;;;3.00;1.93;;;16.80;68.30;17.70;98977.00;;;;5051925;28;20721;-48
2023/12/13 00:48:47;;;;;;;1.70;1.60;;;16.80;68.20;17.70;98965.00;;;;5052773;28;20666;-48
2023/12/13 00:51:19;;;;;;;2.13;1.60;;;16.80;68.20;17.60;98964.00;;;;5053408;28;20185;-47
2023/12/13 00:53:45;;;;;;;1.70;1.60;;;16.70;68.10;17.60;98962.00;;;;5052663;28;20736;-48
2023/12/13 00:56:11;;;;;;;2.43;1.63;;;16.70;68.00;17.60;98963.00;;;;5053055;28;20213;-48
2023/12/13 00:58:36;;;;;;;2.23;1.70;;;16.70;68.00;17.60;98957.00;;;;5054241;28;20663;-48
2023/12/13 01:01:02;;;;;;;2.67;1.70;;;16.70;68.10;17.60;98949.00;;;;5052510;28;20182;-48
2023/12/13 01:03:28;;;;;;;1.80;1.70;;;16.60;67.90;17.50;98970.00;;;;5055117;28;21623;-48
2023/12/13 01:05:54;;;;;;;2.17;1.97;;;16.70;68.00;17.50;98966.00;;;;5051674;28;20205;-48
2023/12/13 01:08:19;;;;;;;1.73;1.63;;;16.60;68.00;17.50;98968.00;;;;5053036;28;20294;-48
2023/12/13 01:10:45;;;;;;;1.93;1.70;;;16.60;67.90;17.50;98962.00;;;;5051847;28;20191;-49
2023/12/13 01:13:11;;;;;;;1.37;1.27;;;16.60;67.80;17.50;98970.00;;;;5051739;28;20213;-48
2023/12/13 01:15:37;;;;;;;1.57;1.40;;;16.60;68.00;17.50;98966.00;;;;5053165;28;20204;-47
2023/12/13 01:18:03;;;;;;;1.70;1.60;;;16.60;68.00;17.50;98963.00;;;;5051819;28;20180;-47
2023/12/13 01:20:29;;;;;;;1.80;1.70;;;16.60;68.00;17.50;98970.00;;;;5053314;28;20192;-49
2023/12/13 01:22:55;;;;;;;2.00;1.80;;;16.60;68.00;17.40;98969.00;;;;5049628;28;20557;-48
2023/12/13 01:25:21;;;;;;;1.70;1.60;;;16.60;68.00;17.40;98957.00;;;;5053291;28;20177;-47
2023/12/13 01:27:46;;;;;;;2.60;1.80;;;16.60;67.90;17.40;98952.00;;;;5052387;28;20322;-47
2023/12/13 01:30:12;;;;;;;1.83;1.70;;;16.60;69.50;17.40;98962.00;;;;5052141;28;20827;-46
2023/12/13 01:32:38;;;;;;;2.00;1.80;;;16.60;69.20;17.40;98967.00;;;;5052382;28;20210;-47
2023/12/13 01:35:05;;;;;;;2.30;1.60;;;16.60;69.20;17.40;98957.00;;;;5051789;28;20668;-47
2023/12/13 01:37:31;;;;;;;3.33;1.70;;;16.60;69.10;17.40;98952.00;;;;5053455;28;20279;-47
2023/12/13 01:39:56;;;;;;;1.60;1.50;;;16.60;68.80;17.40;98960.00;;;;5051501;28;20273;-47
2023/12/13 01:42:25;;;;;;;2.93;1.60;;;16.60;68.80;17.40;98953.00;;;;5053076;28;20189;-47
2023/12/13 01:44:51;;;;;;;2.63;1.80;;;16.60;68.80;17.40;98957.00;;;;5050129;28;20184;-47
2023/12/13 01:47:17;;;;;;;1.93;1.50;;;16.60;68.80;17.40;98959.00;;;;5052699;28;20658;-47
2023/12/13 01:49:44;;;;;;;2.33;1.70;;;16.50;68.60;17.40;98965.00;;;;5054714;28;20197;-49
2023/12/13 01:52:10;;;;;;;2.07;1.70;;;16.60;68.60;17.40;98967.00;;;;5054509;28;20211;-47
2023/12/13 01:54:36;;;;;;;1.97;1.77;;;16.50;68.50;17.40;98945.00;;;;5055531;28;20227;-48
2023/12/13 01:57:02;;;;;;;2.00;1.80;;;16.50;68.50;17.40;98953.00;;;;5037670;28;20232;-47
2023/12/13 01:59:28;;;;;;;2.23;1.57;;;16.50;68.60;17.40;98961.00;;;;5055633;28;20610;-48
2023/12/13 02:01:57;;;;;;;2.00;1.60;;;16.50;68.50;17.40;98958.00;;;;5037953;28;20182;-47
2023/12/13 02:04:25;;;;;;;1.80;1.70;;;16.50;68.50;17.40;98963.00;;;;5055428;28;20182;-47
2023/12/13 02:06:51;;;;;;;1.70;1.60;;;16.50;68.40;17.40;98969.00;;;;5055699;28;20666;-47
2023/12/13 02:09:17;;;;;;;2.30;1.63;;;16.50;68.60;17.30;98962.00;;;;5055445;28;20186;-47
2023/12/13 02:11:43;;;;;;;1.90;1.70;;;16.50;68.60;17.30;98964.00;;;;5056028;28;20185;-47
2023/12/13 02:14:09;;;;;;;1.70;1.60;;;16.50;68.70;17.30;98960.00;;;;5057571;28;20207;-48
2023/12/13 02:16:34;;;;;;;2.63;1.63;;;16.50;68.30;17.30;98954.00;;;;5041978;28;20699;-49
2023/12/13 02:19:00;;;;;;;1.60;1.50;;;16.50;68.30;17.30;98948.00;;;;5056834;28;20196;-46
2023/12/13 02:21:26;;;;;;;1.80;1.57;;;16.40;68.20;17.20;98954.00;;;;5056749;28;20177;-47
2023/12/13 02:23:53;;;;;;;1.87;1.47;;;16.50;68.40;17.20;98953.00;;;;5053417;28;20674;-47
2023/12/13 02:26:19;;;;;;;2.13;1.60;;;16.40;68.40;17.20;98946.00;;;;5056844;28;20554;-47
2023/12/13 02:28:45;;;;;;;3.07;1.60;;;16.40;68.30;17.20;98946.00;;;;5053990;28;20185;-47
2023/12/13 02:31:11;;;;;;;1.37;1.30;;;16.40;68.40;17.20;98944.00;;;;5055173;28;20721;-47
2023/12/13 02:33:40;;;;;;;1.67;1.57;;;16.30;68.30;17.10;98944.00;;;;5055015;28;20209;-47
2023/12/13 02:36:06;;;;;;;1.83;1.70;;;16.30;68.30;17.10;98936.00;;;;5055012;28;20806;-46
2023/12/13 02:38:32;;;;;;;1.53;1.40;;;16.30;68.40;17.10;98938.00;;;;5056270;28;20244;-47
2023/12/13 02:40:58;;;;;;;2.10;1.70;;;16.30;68.70;17.10;98942.00;;;;5055003;28;20186;-46
2023/12/13 02:43:24;;;;;;;1.50;1.40;;;16.30;68.50;17.10;98923.00;;;;5056760;28;20178;-47
2023/12/13 02:45:50;;;;;;;1.70;1.60;;;16.30;68.50;17.10;98923.00;;;;5055238;28;20799;-47
2023/12/13 02:48:16;;;;;;;2.33;1.70;;;16.30;68.60;17.10;98925.00;;;;5055804;28;20277;-47
2023/12/13 02:50:41;;;;;;;1.70;1.60;;;16.30;69.30;17.10;98921.00;;;;5055623;28;20878;-47
2023/12/13 02:53:07;;;;;;;1.87;1.60;;;16.30;68.60;17.00;98913.00;;;;5054432;28;20237;-47
2023/12/13 02:55:33;;;;;;;1.43;1.33;;;16.30;68.40;17.00;98921.00;;;;5054747;28;20183;-47
2023/12/13 02:57:59;;;;;;;1.60;1.50;;;16.30;68.50;17.00;98917.00;;;;5054485;28;20282;-47
2023/12/13 03:00:25;;;;;;;2.33;1.40;;;16.30;68.60;17.00;98915.00;;;;5056035;28;20647;-47
2023/12/13 03:02:51;;;;;;;2.43;1.70;;;16.30;68.50;17.00;98916.00;;;;5053965;28;20187;-48
2023/12/13 03:05:17;;;;;;;1.60;1.50;;;16.30;68.60;17.00;98915.00;;;;5058442;28;20186;-48
2023/12/13 03:07:43;;;;;;;1.73;1.63;;;16.20;68.40;17.00;98927.00;;;;5055630;28;20677;-47
2023/12/13 03:10:09;;;;;;;1.70;1.60;;;16.20;68.50;17.00;98921.00;;;;5053702;28;20268;-47
2023/12/13 03:12:34;;;;;;;1.83;1.70;;;16.20;68.40;17.00;98915.00;;;;5051850;28;20208;-48
2023/12/13 03:15:01;;;;;;;1.70;1.60;;;16.20;68.40;16.90;98920.00;;;;5053969;28;20630;-48
2023/12/13 03:17:26;;;;;;;2.33;1.77;;;16.20;68.50;16.90;98913.00;;;;5055831;28;20198;-49
2023/12/13 03:19:52;;;;;;;2.00;1.80;;;16.20;68.50;16.90;98916.00;;;;5054200;28;20567;-48
2023/12/13 03:22:18;;;;;;;1.50;1.40;;;16.20;68.60;16.90;98913.00;;;;5053674;28;20178;-47
2023/12/13 03:24:43;;;;;;;1.70;1.60;;;16.20;68.60;16.90;98903.00;;;;5053127;28;20175;-47
2023/12/13 03:27:09;;;;;;;1.87;1.70;;;16.20;68.60;16.90;98910.00;;;;5054854;28;20198;-48
2023/12/13 03:29:35;;;;;;;1.73;1.63;;;16.10;68.80;16.90;98900.00;;;;5055726;28;20175;-48
2023/12/13 03:32:00;;;;;;;1.77;1.67;;;16.10;68.50;16.90;98900.00;;;;5053841;28;20176;-48
2023/12/13 03:34:26;;;;;;;1.90;1.70;;;16.10;69.40;16.90;98891.00;;;;5055061;28;20690;-48
2023/12/13 03:36:52;;;;;;;1.80;1.70;;;16.10;68.60;16.90;98899.00;;;;5053642;28;20212;-47
2023/12/13 03:39:18;;;;;;;2.03;1.83;;;16.10;68.80;16.90;98891.00;;;;5054871;28;20186;-47
2023/12/13 03:41:43;;;;;;;1.90;1.60;;;16.10;68.60;16.80;98885.00;;;;5054410;28;20205;-48
2023/12/13 03:44:09;;;;;;;1.80;1.70;;;16.10;68.60;16.80;98878.00;;;;5053378;28;20558;-47
2023/12/13 03:46:35;;;;;;;1.70;1.60;;;16.10;68.60;16.80;98887.00;;;;5055408;28;20198;-48
2023/12/13 03:49:00;;;;;;;1.80;1.70;;;16.10;68.60;16.80;98808.00;;;;5053512;28;20205;-48
2023/12/13 03:51:26;;;;;;;2.10;1.83;;;16.00;68.50;16.80;98887.00;;;;5055659;28;20199;-47
2023/12/13 03:53:52;;;;;;;2.90;1.90;;;16.00;68.50;16.80;98883.00;;;;5053855;28;20203;-48
2023/12/13 03:56:17;;;;;;;2.10;1.53;;;16.00;68.60;16.80;98884.00;;;;5054742;28;20200;-48
2023/12/13 03:58:43;;;;;;;2.63;1.63;;;16.00;68.60;16.80;98889.00;;;;5054304;28;20539;-47
2023/12/13 04:01:09;;;;;;;2.57;2.20;;;16.00;68.50;16.80;98890.00;;;;5053702;28;20187;-47
2023/12/13 04:03:35;;;;;;;1.70;1.60;;;16.00;68.60;16.80;98887.00;;;;5057436;28;20183;-47
2023/12/13 04:06:01;;;;;;;2.23;1.67;;;16.00;68.60;16.80;98888.00;;;;5052738;28;20212;-46
2023/12/13 04:08:27;;;;;;;2.60;1.93;;;16.00;68.60;16.80;98887.00;;;;5055834;28;20175;-47
2023/12/13 04:10:53;;;;;;;2.77;1.70;;;16.00;68.60;16.80;98879.00;;;;5053429;28;20184;-46
2023/12/13 04:13:18;;;;;;;2.80;1.90;;;16.00;68.60;16.80;98887.00;;;;5054946;28;20209;-46
2023/12/13 04:15:44;;;;;;;2.43;1.90;;;16.00;68.60;16.80;98884.00;;;;5054545;28;20179;-46
2023/12/13 04:18:11;;;;;;;2.57;1.80;;;16.00;68.60;16.80;98897.00;;;;5053966;28;20680;-47
2023/12/13 04:20:36;;;;;;;4.80;2.57;;;16.00;68.60;16.70;98865.00;;;;5054218;28;20179;-46
2023/12/13 04:23:03;;;;;;;2.53;1.80;;;15.90;70.30;16.70;98877.00;;;;5052639;28;20183;-47
2023/12/13 04:25:29;;;;;;;3.63;1.90;;;16.00;69.20;16.80;98885.00;;;;5055912;28;20238;-47
2023/12/13 04:27:55;;;;;;;3.33;2.17;;;15.90;69.80;16.80;98878.00;;;;5054371;28;20611;-46
2023/12/13 04:30:20;;;;;;;3.27;1.90;;;16.00;70.30;16.80;98889.00;;;;5055206;28;20181;-47
2023/12/13 04:32:46;;;;;;;4.53;2.03;;;16.00;69.70;16.80;98878.00;;;;5053153;28;20234;-47
2023/12/13 04:35:12;;;;;;;2.00;1.80;;;15.90;69.60;16.80;98883.00;;;;5054072;28;20174;-47
2023/12/13 04:37:38;;;;;;;3.43;2.10;;;16.00;69.40;16.80;98872.00;;;;5055507;28;20284;-47
2023/12/13 04:40:06;;;;;;;2.97;1.87;;;16.00;69.30;16.80;98876.00;;;;5053789;28;20928;-47
2023/12/13 04:42:32;;;;;;;2.43;1.90;;;16.00;69.10;16.90;98888.00;;;;5053589;28;20556;-47
2023/12/13 04:44:58;;;;;;;5.47;1.90;;;16.00;68.90;16.90;98874.00;;;;5053271;28;20177;-47
2023/12/13 04:47:24;;;;;;;2.07;1.80;;;16.00;68.90;16.90;98869.00;;;;5055089;28;20202;-47
2023/12/13 04:49:50;;;;;;;1.97;1.73;;;16.00;68.80;16.90;98870.00;;;;5052202;28;20697;-47
2023/12/13 04:52:16;;;;;;;3.23;1.90;;;16.00;68.70;16.90;98878.00;;;;5054326;28;20178;-47
2023/12/13 04:54:41;;;;;;;2.33;1.90;;;16.00;68.60;16.90;98868.00;;;;5054016;28;20187;-47
2023/12/13 04:57:08;;;;;;;2.90;1.80;;;16.00;68.50;16.90;98874.00;;;;5053439;28;20201;-47
2023/12/13 04:59:33;;;;;;;5.33;2.00;;;16.00;68.50;16.90;98876.00;;;;5055401;28;20174;-47
2023/12/13 05:01:59;;;;;;;2.00;1.80;;;16.00;68.50;16.90;98864.00;;;;5052193;28;20206;-47
2023/12/13 05:04:25;;;;;;;2.23;1.90;;;16.00;68.40;16.90;98873.00;;;;5057035;28;20204;-46
2023/12/13 05:06:50;;;;;;;2.73;1.77;;;16.00;68.20;16.90;98862.00;;;;5053485;28;20723;-48
2023/12/13 05:09:16;;;;;;;1.83;1.63;;;16.00;68.30;16.90;98856.00;;;;5054357;28;20178;-46
2023/12/13 05:11:42;;;;;;;1.90;1.70;;;16.00;68.20;16.90;98864.00;;;;5054128;28;20214;-50
2023/12/13 05:14:08;;;;;;;1.90;1.70;;;16.00;68.10;16.90;98855.00;;;;5052892;28;20262;-47
2023/12/13 05:16:33;;;;;;;2.27;1.60;;;16.00;68.10;16.90;98867.00;;;;5037062;28;20191;-47
2023/12/13 05:19:00;;;;;;;2.00;1.60;;;16.00;68.00;16.90;98860.00;;;;5053234;28;20211;-47
2023/12/13 05:21:26;;;;;;;3.10;1.80;;;16.00;68.10;16.90;98862.00;;;;5054870;28;20179;-46
2023/12/13 05:23:51;;;;;;;2.63;1.60;;;16.00;68.10;16.90;98866.00;;;;5051813;28;20183;-46
2023/12/13 05:26:17;;;;;;;3.63;1.80;;;16.00;68.10;16.90;98864.00;;;;5054621;28;20551;-46
2023/12/13 05:28:43;;;;;;;2.80;1.90;;;16.00;68.10;16.90;98869.00;;;;5051718;28;20184;-47
2023/12/13 05:31:21;;;;;;;2.40;1.70;;;16.00;68.10;16.90;98864.00;;;;5052860;28;20179;-46
2023/12/13 05:33:47;;;;;;;2.63;1.63;;;15.90;68.00;16.90;98865.00;;;;5052756;28;20202;-46
2023/12/13 05:36:13;;;;;;;2.47;1.67;;;16.00;68.10;16.90;98862.00;;;;5052405;28;20671;-46
2023/12/13 05:38:40;;;;;;;3.00;1.80;;;15.90;68.10;16.90;98858.00;;;;5054019;28;20257;-47
2023/12/13 05:41:06;;;;;;;2.20;1.77;;;15.90;68.10;16.90;98865.00;;;;5052925;28;20175;-48
2023/12/13 05:43:34;;;;;;;3.50;1.70;;;15.90;68.10;16.90;98858.00;;;;5054658;28;20614;-46
2023/12/13 05:45:59;;;;;;;2.37;1.63;;;16.00;68.20;16.90;98860.00;;;;5052940;28;20207;-46
2023/12/13 05:48:25;;;;;;;2.30;2.00;;;15.90;68.20;16.90;98853.00;;;;5061067;28;20181;-46
2023/12/13 05:50:51;;;;;;;1.70;1.60;;;15.90;68.40;16.90;98864.00;;;;5057500;28;20195;-48
2023/12/13 05:53:16;;;;;;;1.77;1.50;;;15.90;68.30;16.60;98861.00;;;;5060033;28;20539;-47
2023/12/13 05:55:42;;;;;;;3.30;1.80;;;15.90;68.40;16.90;98861.00;;;;5057473;28;20169;-47
2023/12/13 05:58:09;;;;;;;2.67;1.77;;;15.90;68.40;16.80;98854.00;;;;5054982;28;20650;-47
2023/12/13 06:00:35;;;;;;;2.87;1.47;;;15.90;68.30;16.80;98854.00;;;;5054041;28;20191;-46
2023/12/13 06:03:01;;;;;;;2.70;1.60;;;15.90;68.30;16.80;98848.00;;;;5053485;28;20183;-46
2023/12/13 06:05:26;;;;;;;2.73;1.63;;;15.90;68.30;16.80;98861.00;;;;5055727;28;20180;-46
2023/12/13 06:07:52;;;;;;;4.83;2.20;;;15.90;68.40;16.80;98852.00;;;;5045837;28;20203;-47
2023/12/13 06:10:18;;;;;;;4.83;1.80;;;15.90;68.80;16.80;98856.00;;;;5048047;28;20829;-46
2023/12/13 06:12:43;;;;;;;3.77;1.80;;;15.80;68.60;16.80;98856.00;;;;5052105;28;20579;-45
2023/12/13 06:15:09;;;;;;;3.27;2.00;;;15.90;68.80;16.80;98863.00;;;;5050298;28;20208;-46
2023/12/13 06:17:35;;;;;;;3.07;1.70;;;15.80;68.70;16.70;98862.00;;;;5054283;28;20600;-47
2023/12/13 06:20:02;;;;;;;3.20;2.00;;;15.80;68.80;16.70;98863.00;;;;5047399;28;20660;-48
2023/12/13 06:22:28;;;;;;;2.47;1.80;;;15.80;68.90;16.70;98871.00;;;;5053766;28;20675;-47
2023/12/13 06:24:54;;;;;;;4.13;1.73;;;15.80;68.70;16.70;98859.00;;;;5051900;28;20214;-48
2023/12/13 06:27:20;;;;;;;3.13;1.70;;;15.80;68.80;16.70;98862.00;;;;5054356;28;20202;-46
2023/12/13 06:29:45;;;;;;;2.93;1.70;;;15.80;68.80;16.70;98860.00;;;;5054782;28;20220;-46
2023/12/13 06:32:11;;;;;;;2.27;1.70;;;15.80;68.80;16.70;98857.00;;;;5050737;28;20180;-47
2023/12/13 06:34:37;;;;;;;2.43;1.50;;;15.80;68.80;16.70;98864.00;;;;5055041;28;20256;-47
2023/12/13 06:37:03;;;;;;;1.93;1.60;;;15.80;68.80;16.70;98864.00;;;;5055587;28;20197;-47
2023/12/13 06:39:28;;;;;;;1.97;1.70;;;15.80;68.80;16.60;98871.00;;;;5057028;28;20186;-47
2023/12/13 06:41:54;;;;;;;3.47;1.80;;;15.80;68.80;16.60;98860.00;;;;5054839;28;20706;-47
2023/12/13 06:44:21;;;;;;;2.53;1.87;;;15.80;68.80;16.60;98868.00;;;;5056656;28;20183;-47
2023/12/13 06:46:47;;;;;;;1.93;1.70;;;15.80;68.90;16.60;98868.00;;;;5055945;28;20691;-47
2023/12/13 06:49:12;;;;;;;1.40;1.30;;;15.70;68.80;16.60;98865.00;;;;5055802;28;20221;-47
2023/12/13 06:51:38;;;;;;;2.80;1.60;;;15.80;69.00;16.60;98874.00;;;;5057165;28;20183;-47
2023/12/13 06:54:04;;;;;;;1.90;1.50;;;15.70;68.90;16.60;98874.00;;;;5054980;28;20213;-47
2023/12/13 06:56:30;;;;;;;2.43;1.70;;;15.70;69.00;16.60;98864.00;;;;5056122;28;20194;-48
2023/12/13 06:58:55;;;;;;;2.60;1.70;;;15.70;69.00;16.60;98862.00;;;;5055265;28;20204;-46
2023/12/13 07:01:22;;;;;;;1.93;1.30;;;15.70;69.00;16.60;98864.00;;;;5056924;28;20179;-47
2023/12/13 07:03:48;;;;;;;2.70;1.70;;;15.70;69.00;16.60;98863.00;;;;5057034;28;20182;-47
2023/12/13 07:06:16;;;;;;;2.10;1.47;;;15.70;69.00;16.60;98867.00;;;;5054555;28;20204;-46
2023/12/13 07:08:42;;;;;;;1.40;1.30;;;15.70;69.00;16.60;98868.00;;;;5056219;28;20182;-47
2023/12/13 07:11:08;;;;;;;1.80;1.57;;;15.70;69.10;16.60;98871.00;;;;5053653;28;20183;-47
2023/12/13 07:13:34;;;;;;;2.53;1.63;;;15.70;69.10;16.50;98876.00;;;;5052980;28;20224;-47
2023/12/13 07:16:00;;;;;;;2.00;1.63;;;15.70;69.10;16.50;98869.00;;;;5055307;28;20194;-46
2023/12/13 07:18:26;;;;;;;1.73;1.53;;;15.70;69.10;16.50;98865.00;;;;5057346;28;20173;-46
2023/12/13 07:20:52;;;;;;;2.10;1.50;;;15.70;69.10;16.50;98873.00;;;;5055445;28;20171;-46
2023/12/13 07:23:18;;;;;;;1.80;1.60;;;15.70;69.10;16.50;98874.00;;;;5055941;28;20171;-47
2023/12/13 07:25:44;;;;;;;1.80;1.60;;;15.60;69.00;16.50;98880.00;;;;5055972;28;20180;-47
2023/12/13 07:28:10;;;;;;;2.10;1.50;;;15.60;69.00;16.50;98878.00;;;;5054421;28;20178;-47
2023/12/13 07:30:36;;;;;;;1.47;1.37;;;15.60;69.00;16.50;98880.00;;;;5056495;28;20727;-46
2023/12/13 07:33:03;;;;;;;1.53;1.43;;;15.60;69.10;16.50;98871.00;;;;5053852;28;20194;-46
2023/12/13 07:35:28;;;;;;;1.90;1.40;;;15.60;69.30;16.50;98885.00;;;;5056881;28;20173;-46
2023/12/13 07:37:55;;;;;;;1.50;1.40;;;15.60;69.20;16.50;98875.00;;;;5054659;28;20199;-46
2023/12/13 07:40:20;;;;;;;1.73;1.63;;;15.60;69.30;16.50;98868.00;;;;5056311;28;20171;-46
2023/12/13 07:42:47;;;;;;;1.60;1.50;;;15.60;69.20;16.50;98880.00;;;;5054494;28;20764;-46
2023/12/13 07:45:13;;;;;;;1.50;1.40;;;15.60;69.20;16.50;98876.00;;;;5054358;28;20179;-46
2023/12/13 07:47:39;;;;;;;1.40;1.23;;;15.60;69.20;16.50;98883.00;;;;5055814;28;20196;-46
2023/12/13 07:50:06;;;;;;;1.30;1.20;;;15.60;69.20;16.50;98880.00;;;;5054238;28;20182;-46
2023/12/13 07:52:32;;;;;;;1.30;1.23;;;15.60;69.20;16.40;98885.00;;;;5054868;28;20182;-46
2023/12/13 07:54:58;;;;;;;1.77;1.27;;;15.60;70.00;16.40;98881.00;;;;5053644;28;20277;-46
2023/12/13 07:57:24;;;;;;;1.73;1.37;;;15.60;69.20;16.40;98885.00;;;;5056064;28;20282;-46
2023/12/13 07:59:50;;;;;;;1.90;1.30;;;15.60;69.20;16.40;98886.00;;;;5039743;28;20189;-46
2023/12/13 08:02:20;;;;;;;4.77;1.60;;;15.60;69.30;16.40;98875.00;;;;5056100;28;20178;-45
2023/12/13 08:04:46;;;;;;;2.23;1.57;;;15.60;69.80;16.40;98883.00;;;;5051382;28;20653;-45
2023/12/13 08:07:12;;;;;;;3.83;1.43;;;15.50;69.50;16.40;98885.00;;;;5054826;28;20200;-46
2023/12/13 08:09:37;;;;;;;2.13;1.70;;;15.60;70.00;16.40;98887.00;;;;5054909;28;20636;-48
2023/12/13 08:12:03;;;;;;;3.80;1.53;;;15.50;69.70;16.40;98885.00;;;;5049252;28;20670;-45
2023/12/13 08:14:31;;;;;;;4.87;1.40;;;15.60;70.00;16.40;98895.00;;;;5053716;28;20292;-45
2023/12/13 08:16:57;;;;;;;2.03;1.50;;;15.60;69.80;16.40;98883.00;;;;5054293;28;20727;-46
2023/12/13 08:19:23;;;;;;;1.77;1.50;;;15.60;69.90;16.40;98881.00;;;;5055658;28;20170;-45
2023/12/13 08:21:49;;;;;;;1.40;1.30;;;15.60;69.80;16.50;98876.00;;;;5054427;28;20182;-45
2023/12/13 08:24:15;;;;;;;2.10;1.63;;;15.60;69.60;16.50;98880.00;;;;5054195;28;20240;-46
2023/12/13 08:26:40;;;;;;;2.40;1.40;;;15.60;69.50;16.50;98885.00;;;;5055905;28;20284;-46
2023/12/13 08:29:06;;;;;;;2.20;1.70;;;15.60;69.30;16.50;98887.00;;;;5055431;28;20675;-46
2023/12/13 08:31:32;;;;;;;1.67;1.57;;;15.60;69.40;16.50;98884.00;;;;5056040;28;20173;-46
2023/12/13 08:33:58;;;;;;;1.63;1.37;;;15.60;69.40;16.50;98894.00;;;;5052784;28;20206;-45
2023/12/13 08:36:23;;;;;;;1.50;1.40;;;15.60;69.30;16.50;98887.00;;;;5055541;28;20205;-45
2023/12/13 08:38:49;;;;;;;1.50;1.40;;;15.60;69.30;16.50;98881.00;;;;5053075;28;20174;-45
2023/12/13 08:41:15;;;;;;;2.27;1.40;;;15.60;69.30;16.50;98883.00;;;;5053983;28;20192;-45
2023/12/13 08:43:41;;;;;;;1.63;1.17;;;15.60;69.20;16.50;98883.00;;;;5054464;28;20189;-46
2023/12/13 08:46:07;;;;;;;1.70;1.60;;;15.60;69.20;16.50;98889.00;;;;5053280;28;20203;-45
2023/12/13 08:48:32;;;;;;;2.60;1.60;;;15.60;69.20;16.50;98861.00;;;;5054940;28;20186;-46
2023/12/13 08:50:58;;;;;;;1.50;1.40;;;15.60;69.20;16.50;98898.00;;;;5052154;28;20645;-45
2023/12/13 08:53:24;;;;;;;1.60;1.40;;;15.60;69.20;16.50;98899.00;;;;5054562;28;20220;-45
2023/12/13 08:55:50;;;;;;;1.50;1.40;;;15.50;69.20;16.50;98898.00;;;;5053304;28;20185;-46
2023/12/13 08:58:16;;;;;;;1.37;1.27;;;15.60;69.20;16.50;98904.00;;;;5053394;28;20179;-45
2023/12/13 09:00:42;;;;;;;1.50;1.40;;;15.60;69.10;16.50;98896.00;;;;5054498;28;20238;-46
2023/12/13 09:03:08;;;;;;;1.53;1.43;;;15.60;69.10;16.50;98900.00;;;;5053691;28;20182;-46
2023/12/13 09:05:35;;;;;;;2.27;1.60;;;15.60;69.10;16.50;98916.00;;;;5055362;28;20186;-45
2023/12/13 09:08:01;;;;;;;1.70;1.50;;;15.60;69.20;16.50;98913.00;;;;5052798;28;20226;-45
2023/12/13 09:10:26;;;;;;;2.00;1.50;;;15.50;69.30;16.40;98916.00;;;;5055261;28;20615;-45
2023/12/13 09:12:52;;;;;;;2.50;1.57;;;15.50;69.60;16.40;98905.00;;;;5052560;28;20202;-46
2023/12/13 09:15:18;;;;;;;3.37;1.50;;;15.50;69.70;16.40;98907.00;;;;5054153;28;20204;-45
2023/12/13 09:17:47;;;;;;;2.47;1.40;;;15.60;70.00;16.40;98914.00;;;;5052859;28;20204;-46
2023/12/13 09:20:16;;;;;;;2.57;1.53;;;15.60;70.00;16.50;98917.00;;;;5052714;28;20171;-46
2023/12/13 09:22:42;;;;;;;4.43;1.77;;;15.60;70.00;16.50;98916.00;;;;5053672;28;20587;-45
2023/12/13 09:25:09;;;;;;;2.47;1.63;;;15.80;70.00;16.60;98924.00;;;;5052454;28;20204;-44
2023/12/13 09:27:35;;;;;;;3.93;1.70;;;15.80;70.10;16.60;98919.00;;;;5050758;28;20201;-44
2023/12/13 09:30:02;;;;;;;3.23;1.40;;;15.90;70.20;16.70;98926.00;;;;5056819;28;20174;-44
2023/12/13 09:32:28;;;;;;;7.40;1.60;;;16.10;70.10;16.80;98920.00;;;;5055682;28;20188;-44
2023/12/13 09:34:53;;;;;;;3.53;1.67;;;16.10;70.20;16.80;98917.00;;;;5052793;28;20725;-44
2023/12/13 09:37:19;;;;;;;4.30;1.63;;;16.30;70.30;16.90;98921.00;;;;5054068;28;20198;-45
2023/12/13 09:39:45;;;;;;;4.70;1.60;;;16.40;70.20;17.00;98920.00;;;;5052756;28;20193;-44
2023/12/13 09:42:11;;;;;;;3.83;1.50;;;16.60;70.20;17.10;98933.00;;;;5052870;28;20657;-45
2023/12/13 09:44:39;;;;;;;2.40;1.80;;;16.80;70.20;17.20;98923.00;;;;5036766;28;20186;-46
2023/12/13 09:47:05;;;;;;;2.17;1.67;;;16.80;70.00;17.40;98912.00;;;;5051652;28;20268;-45
2023/12/13 09:49:31;;;;;;;2.90;1.57;;;17.00;70.00;17.50;98939.00;;;;5039671;28;20188;-45
2023/12/13 09:51:56;;;;;;;2.00;1.40;;;17.20;69.80;17.60;98933.00;;;;5050969;28;20185;-45
2023/12/13 09:54:22;;;;;;;1.97;1.43;;;17.30;69.50;17.70;98921.00;;;;5035413;28;20205;-45
2023/12/13 09:56:49;;;;;;;2.93;1.60;;;17.40;69.30;17.80;98933.00;;;;5051882;28;20196;-45
2023/12/13 09:59:15;;;;;;;1.53;1.13;;;17.50;69.40;17.90;98935.00;;;;5054755;28;20561;-45
2023/12/13 10:01:42;;;;;;;2.07;1.33;;;17.60;69.50;18.00;98935.00;;;;5052910;28;20170;-45
2023/12/13 10:04:07;;;;;;;3.87;1.57;;;17.70;69.50;18.10;98939.00;;;;5052073;28;20184;-45
2023/12/13 10:06:33;;;;;;;1.57;1.17;;;17.80;69.40;18.20;98941.00;;;;5052217;28;20204;-45
2023/12/13 10:09:01;;;;;;;1.70;1.33;;;17.90;69.30;18.30;98939.00;;;;5053334;28;20552;-44
2023/12/13 10:11:27;;;;;;;2.20;1.40;;;17.90;69.20;18.40;98946.00;;;;5058767;28;20652;-44
2023/12/13 10:13:52;;;;;;;1.23;1.13;;;18.00;69.20;18.50;98938.00;;;;5056179;28;20216;-44
2023/12/13 10:16:19;;;;;;;1.50;1.40;;;18.10;69.30;18.60;98954.00;;;;5057271;28;20201;-44
2023/12/13 10:18:46;;;;;;;3.37;1.50;;;18.20;69.20;18.70;98941.00;;;;5057000;28;20230;-44
2023/12/13 10:21:13;;;;;;;1.23;1.10;;;18.30;69.10;18.70;98946.00;;;;5019519;28;20178;-45
2023/12/13 10:23:42;;;;;;;3.13;1.40;;;18.30;69.00;18.80;98949.00;;;;5057920;28;20178;-45
2023/12/13 10:26:09;;;;;;;2.53;1.40;;;18.40;68.90;18.90;98947.00;;;;5055792;28;20255;-45
2023/12/13 10:28:35;;;;;;;1.97;1.40;;;18.40;68.80;19.00;98944.00;;;;5053220;28;20379;-44
2023/12/13 10:31:01;;;;;;;1.60;1.40;;;18.50;68.70;19.00;98945.00;;;;5056794;28;20261;-45
2023/12/13 10:33:27;;;;;;;1.40;1.30;;;18.50;68.60;19.10;98940.00;;;;5056979;28;20255;-45
2023/12/13 10:35:53;;;;;;;1.40;1.30;;;18.60;68.60;19.20;98948.00;;;;5056187;28;20186;-45
2023/12/13 10:38:20;;;;;;;2.93;1.40;;;18.70;68.30;19.20;98938.00;;;;5056882;28;20170;-45
2023/12/13 10:40:46;;;;;;;1.43;1.30;;;18.80;68.20;19.30;98944.00;;;;5039174;28;20273;-45
2023/12/13 10:43:12;;;;;;;3.50;1.57;;;18.90;68.60;19.40;98944.00;;;;5054523;28;20253;-44
2023/12/13 10:45:43;;;;;;;1.50;1.40;;;18.80;68.40;19.40;98940.00;;;;5058057;28;20686;-46
2023/12/13 10:48:10;;;;;;;4.00;2.50;;;18.90;68.50;19.50;98945.00;;;;5043628;28;20200;-46
2023/12/13 10:50:36;;;;;;;3.83;3.20;;;19.00;69.60;19.50;98946.00;;;;5056352;28;20181;-47